createdAt,value
2018-08-04T00:01:44.433Z,21.20
2018-08-04T00:04:20.009Z,21.20
2018-08-04T00:06:55.174Z,21.20
2018-08-04T00:09:30.917Z,21.10
2018-08-04T00:12:06.121Z,21.20
2018-08-04T00:14:41.493Z,21.10
2018-08-04T00:17:16.645Z,21.10
2018-08-04T00:19:52.572Z,21.10
2018-08-04T00:22:28.004Z,21.20
2018-08-04T00:25:03.652Z,21.10
2018-08-04T00:27:39.172Z,21.10
2018-08-04T00:30:15.592Z,21.10
2018-08-04T00:32:51.136Z,21.10
2018-08-04T00:35:26.677Z,21.00
2018-08-04T00:38:02.100Z,20.90
2018-08-04T00:40:37.424Z,20.90
2018-08-04T00:43:12.841Z,20.80
2018-08-04T00:45:48.436Z,20.80
2018-08-04T00:48:23.916Z,20.80
2018-08-04T00:50:59.252Z,20.80
2018-08-04T00:53:34.805Z,20.80
2018-08-04T00:56:10.520Z,20.70
2018-08-04T00:58:45.933Z,20.70
2018-08-04T01:01:21.320Z,20.60
2018-08-04T01:03:56.969Z,20.70
2018-08-04T01:06:32.378Z,20.60
2018-08-04T01:09:09.537Z,20.70
2018-08-04T01:16:55.725Z,20.60
2018-08-04T01:19:31.507Z,20.70
2018-08-04T01:22:06.817Z,20.70
2018-08-04T01:24:42.396Z,20.80
2018-08-04T01:27:17.729Z,20.80
2018-08-04T01:29:53.184Z,20.80
2018-08-04T01:32:28.803Z,20.90
2018-08-04T01:35:04.585Z,20.80
2018-08-04T01:37:39.905Z,20.80
2018-08-04T01:40:15.611Z,20.70
2018-08-04T01:42:51.017Z,20.70
2018-08-04T01:45:26.668Z,20.70
2018-08-04T01:50:37.117Z,20.70
2018-08-04T01:53:12.516Z,20.70
2018-08-04T01:58:23.177Z,20.60
2018-08-04T02:01:05.080Z,20.60
2018-08-04T02:03:40.452Z,20.70
2018-08-04T02:06:16.176Z,20.70
2018-08-04T02:08:51.388Z,20.70
2018-08-04T02:11:27.091Z,20.50
2018-08-04T02:14:02.534Z,20.40
2018-08-04T02:16:38.048Z,20.30
2018-08-04T02:19:13.975Z,20.30
2018-08-04T02:21:49.592Z,20.30
2018-08-04T02:24:24.949Z,20.30
2018-08-04T02:27:00.370Z,20.30
2018-08-04T02:29:35.773Z,20.20
2018-08-04T02:32:11.358Z,20.20
2018-08-04T02:34:46.644Z,20.20
2018-08-04T02:37:22.126Z,20.20
2018-08-04T02:39:57.608Z,20.30
2018-08-04T02:42:33.431Z,20.30
2018-08-04T02:45:09.564Z,20.30
2018-08-04T02:47:45.375Z,20.30
2018-08-04T02:50:20.812Z,20.30
2018-08-04T02:52:56.260Z,20.30
2018-08-04T02:55:31.617Z,20.20
2018-08-04T02:58:07.230Z,20.20
2018-08-04T03:03:17.625Z,20.30
2018-08-04T03:05:53.109Z,20.20
2018-08-04T03:08:28.807Z,20.30
2018-08-04T03:11:04.160Z,20.20
2018-08-04T03:13:39.898Z,20.10
2018-08-04T03:16:15.213Z,20.00
2018-08-04T03:18:50.685Z,20.10
2018-08-04T03:21:26.026Z,20.20
2018-08-04T03:24:01.479Z,20.10
2018-08-04T03:26:36.909Z,20.10
2018-08-04T03:29:12.336Z,20.00
2018-08-04T03:31:47.625Z,20.10
2018-08-04T03:34:23.260Z,20.00
2018-08-04T03:36:58.557Z,20.00
2018-08-04T03:42:09.115Z,20.00
2018-08-04T03:44:44.932Z,20.00
2018-08-04T03:47:20.465Z,20.00
2018-08-04T03:49:56.136Z,20.00
2018-08-04T03:52:31.645Z,20.10
2018-08-04T03:55:07.128Z,20.00
2018-08-04T03:57:42.680Z,20.00
2018-08-04T04:00:18.332Z,20.10
2018-08-04T04:05:29.217Z,20.20
2018-08-04T04:08:04.716Z,20.10
2018-08-04T04:10:40.312Z,20.10
2018-08-04T04:13:15.524Z,20.10
2018-08-04T04:18:26.208Z,20.10
2018-08-04T04:21:01.583Z,20.20
2018-08-04T04:23:36.992Z,20.30
2018-08-04T04:26:12.476Z,20.20
2018-08-04T04:28:48.020Z,20.20
2018-08-04T04:31:23.561Z,20.20
2018-08-04T04:33:59.015Z,20.20
2018-08-04T04:36:34.561Z,20.20
2018-08-04T04:39:11.318Z,20.20
2018-08-04T04:41:46.768Z,20.20
2018-08-04T04:44:22.225Z,20.20
2018-08-04T04:46:57.872Z,20.30
2018-08-04T04:49:33.331Z,20.30
2018-08-04T04:52:08.762Z,20.40
2018-08-04T04:54:44.251Z,20.50
2018-08-04T04:57:19.864Z,20.50
2018-08-04T04:59:55.391Z,20.50
2018-08-04T05:02:30.801Z,20.70
2018-08-04T05:05:08.237Z,20.70
2018-08-04T05:07:43.698Z,20.80
2018-08-04T05:10:18.844Z,20.90
2018-08-04T05:12:54.401Z,21.00
2018-08-04T05:15:29.824Z,21.20
2018-08-04T05:18:05.572Z,21.10
2018-08-04T05:20:41.042Z,21.20
2018-08-04T05:23:16.669Z,21.20
2018-08-04T05:25:51.952Z,21.30
2018-08-04T05:28:27.384Z,21.40
2018-08-04T05:31:02.817Z,21.50
2018-08-04T05:33:38.349Z,21.50
2018-08-04T05:36:13.690Z,21.50
2018-08-04T05:38:49.247Z,21.70
2018-08-04T05:41:24.604Z,22.00
2018-08-04T05:44:00.124Z,22.30
2018-08-04T05:46:35.516Z,22.50
2018-08-04T05:49:11.089Z,22.60
2018-08-04T05:51:46.565Z,22.60
2018-08-04T05:54:22.108Z,22.60
2018-08-04T05:56:57.271Z,23.10
2018-08-04T05:59:32.796Z,23.40
2018-08-04T06:04:43.394Z,23.40
2018-08-04T06:07:18.720Z,23.10
2018-08-04T06:09:54.132Z,23.00
2018-08-04T06:12:29.380Z,23.10
2018-08-04T06:15:05.069Z,23.30
2018-08-04T06:17:40.241Z,23.70
2018-08-04T06:20:15.844Z,24.10
2018-08-04T06:22:51.180Z,24.90
2018-08-04T06:25:26.570Z,25.10
2018-08-04T06:28:01.917Z,25.80
2018-08-04T06:30:37.493Z,26.40
2018-08-04T06:33:12.691Z,27.10
2018-08-04T06:35:48.217Z,27.30
2018-08-04T06:38:23.885Z,27.60
2018-08-04T06:40:59.518Z,27.50
2018-08-04T06:43:34.949Z,26.80
2018-08-04T06:46:10.723Z,26.30
2018-08-04T06:48:46.195Z,25.80
2018-08-04T06:51:21.806Z,25.40
2018-08-04T06:53:57.034Z,25.00
2018-08-04T06:56:32.457Z,24.90
2018-08-04T06:59:07.985Z,24.50
2018-08-04T07:01:43.588Z,24.40
2018-08-04T07:04:18.978Z,24.40
2018-08-04T07:06:54.666Z,24.40
2018-08-04T07:09:30.113Z,24.70
2018-08-04T07:12:05.781Z,25.80
2018-08-04T07:14:41.226Z,27.20
2018-08-04T07:17:16.642Z,28.20
2018-08-04T07:19:52.097Z,29.40
2018-08-04T07:22:27.571Z,29.10
2018-08-04T07:25:02.797Z,29.10
2018-08-04T07:27:38.248Z,29.00
2018-08-04T07:30:14.788Z,28.80
2018-08-04T07:32:53.388Z,28.60
2018-08-04T07:35:28.740Z,28.50
2018-08-04T07:38:04.228Z,28.30
2018-08-04T07:40:39.617Z,28.80
2018-08-04T07:43:15.048Z,28.70
2018-08-04T07:45:50.673Z,29.40
2018-08-04T07:51:01.476Z,29.20
2018-08-04T07:53:36.939Z,29.50
2018-08-04T07:56:12.448Z,30.00
2018-08-04T07:58:47.901Z,29.40
2018-08-04T08:01:23.321Z,28.80
2018-08-04T08:03:58.728Z,28.60
2018-08-04T08:06:34.119Z,28.40
2018-08-04T08:11:45.121Z,28.50
2018-08-04T08:14:20.884Z,28.00
2018-08-04T08:16:56.416Z,27.60
2018-08-04T08:19:31.946Z,27.20
2018-08-04T08:22:07.628Z,27.20
2018-08-04T08:24:43.095Z,27.10
2018-08-04T08:27:18.744Z,26.80
2018-08-04T08:29:54.042Z,27.10
2018-08-04T08:32:29.718Z,26.80
2018-08-04T08:35:05.859Z,26.80
2018-08-04T08:37:41.820Z,26.80
2018-08-04T08:42:52.416Z,26.80
2018-08-04T08:45:27.777Z,26.60
2018-08-04T08:48:03.605Z,26.60
2018-08-04T08:50:38.844Z,26.60
2018-08-04T08:53:14.601Z,26.80
2018-08-04T08:55:49.983Z,26.90
2018-08-04T09:01:00.961Z,26.90
2018-08-04T09:03:36.400Z,27.00
2018-08-04T09:06:12.074Z,27.10
2018-08-04T09:08:47.795Z,27.40
2018-08-04T09:11:23.263Z,27.60
2018-08-04T09:13:58.728Z,27.60
2018-08-04T09:16:34.304Z,27.60
2018-08-04T09:19:09.972Z,27.60
2018-08-04T09:21:45.290Z,27.60
2018-08-04T09:24:20.960Z,27.70
2018-08-04T09:26:56.425Z,27.40
2018-08-04T09:29:31.928Z,27.70
2018-08-04T09:34:42.645Z,27.90
2018-08-04T09:37:18.122Z,28.10
2018-08-04T09:39:53.837Z,28.10
2018-08-04T09:42:29.168Z,28.20
2018-08-04T09:45:05.597Z,28.50
2018-08-04T09:47:41.702Z,28.20
2018-08-04T09:50:17.567Z,28.50
2018-08-04T09:52:53.013Z,28.60
2018-08-04T09:55:28.656Z,28.70
2018-08-04T09:58:03.870Z,28.70
2018-08-04T10:00:44.778Z,28.70
2018-08-04T10:03:20.089Z,28.80
2018-08-04T10:05:55.877Z,28.70
2018-08-04T10:08:31.124Z,29.00
2018-08-04T10:11:06.573Z,29.20
2018-08-04T10:13:42.041Z,29.40
2018-08-04T10:16:17.538Z,29.60
2018-08-04T10:18:53.089Z,29.20
2018-08-04T10:21:28.736Z,28.40
2018-08-04T10:24:04.192Z,28.40
2018-08-04T10:29:15.015Z,28.80
2018-08-04T10:31:50.653Z,28.90
2018-08-04T10:34:26.152Z,29.00
2018-08-04T10:37:01.740Z,28.80
2018-08-04T10:39:37.198Z,29.10
2018-08-04T10:42:12.632Z,29.30
2018-08-04T10:44:48.109Z,29.60
2018-08-04T10:47:23.829Z,29.90
2018-08-04T10:49:59.185Z,29.40
2018-08-04T10:52:34.608Z,29.40
2018-08-04T10:55:09.841Z,29.60
2018-08-04T10:57:45.194Z,29.50
2018-08-04T11:00:20.569Z,29.20
2018-08-04T11:02:56.089Z,29.50
2018-08-04T11:05:31.541Z,29.20
2018-08-04T11:08:07.600Z,29.30
2018-08-04T11:10:42.998Z,29.60
2018-08-04T11:13:18.698Z,29.50
2018-08-04T11:15:54.037Z,29.70
2018-08-04T11:18:29.788Z,29.80
2018-08-04T11:21:05.482Z,30.00
2018-08-04T11:23:40.969Z,30.20
2018-08-04T11:26:16.238Z,30.50
2018-08-04T11:28:51.973Z,30.50
2018-08-04T11:31:27.460Z,30.40
2018-08-04T11:34:02.974Z,30.10
2018-08-04T11:36:38.454Z,30.30
2018-08-04T11:39:14.053Z,30.50
2018-08-04T11:41:49.679Z,30.50
2018-08-04T11:44:25.255Z,30.20
2018-08-04T11:47:00.813Z,30.40
2018-08-04T11:49:36.464Z,30.80
2018-08-04T11:52:11.918Z,30.90
2018-08-04T11:54:47.457Z,31.20
2018-08-04T11:57:22.962Z,31.40
2018-08-04T11:59:58.444Z,31.30
2018-08-04T12:02:34.092Z,31.60
2018-08-04T12:05:09.502Z,31.70
2018-08-04T12:07:45.087Z,31.90
2018-08-04T12:10:20.272Z,31.80
2018-08-04T12:12:55.800Z,31.80
2018-08-04T12:15:31.173Z,31.90
2018-08-04T12:18:07.020Z,32.30
2018-08-04T12:20:42.432Z,32.20
2018-08-04T12:23:18.062Z,32.30
2018-08-04T12:25:53.262Z,32.40
2018-08-04T12:28:28.860Z,32.20
2018-08-04T12:31:04.159Z,31.90
2018-08-04T12:33:39.748Z,31.70
2018-08-04T12:36:15.168Z,31.60
2018-08-04T12:38:50.632Z,31.40
2018-08-04T12:41:25.977Z,31.30
2018-08-04T12:44:01.533Z,31.40
2018-08-04T12:46:37.156Z,31.50
2018-08-04T12:49:12.724Z,31.70
2018-08-04T12:51:48.153Z,31.60
2018-08-04T12:54:23.709Z,31.50
2018-08-04T12:56:58.900Z,30.80
2018-08-04T12:59:34.405Z,30.80
2018-08-04T13:02:09.693Z,30.80
2018-08-04T13:04:45.089Z,30.50
2018-08-04T13:07:20.476Z,30.10
2018-08-04T13:09:56.276Z,30.00
2018-08-04T13:12:31.612Z,30.60
2018-08-04T13:15:08.514Z,30.90
2018-08-04T13:17:43.845Z,30.70
2018-08-04T13:20:19.500Z,31.00
2018-08-04T13:22:54.955Z,30.90
2018-08-04T13:25:30.509Z,30.90
2018-08-04T13:28:05.988Z,30.60
2018-08-04T13:30:41.592Z,30.40
2018-08-04T13:33:17.012Z,30.40
2018-08-04T13:35:52.479Z,30.40
2018-08-04T13:38:27.972Z,30.70
2018-08-04T13:41:03.573Z,30.70
2018-08-04T13:46:15.244Z,31.00
2018-08-04T13:48:50.551Z,31.10
2018-08-04T13:51:26.272Z,31.50
2018-08-04T13:54:01.715Z,31.40
2018-08-04T13:56:37.378Z,30.90
2018-08-04T13:59:12.696Z,30.70
2018-08-04T14:01:48.260Z,30.60
2018-08-04T14:04:23.780Z,30.60
2018-08-04T14:06:59.483Z,30.60
2018-08-04T14:09:34.960Z,30.60
2018-08-04T14:12:10.526Z,30.60
2018-08-04T14:14:45.802Z,30.70
2018-08-04T14:17:21.270Z,30.70
2018-08-04T14:19:56.666Z,30.80
2018-08-04T14:22:32.241Z,30.80
2018-08-04T14:25:07.652Z,30.90
2018-08-04T14:27:43.428Z,31.00
2018-08-04T14:32:54.221Z,30.40
2018-08-04T14:35:29.668Z,30.40
2018-08-04T14:38:05.213Z,30.10
2018-08-04T14:40:40.625Z,30.20
2018-08-04T14:43:16.225Z,30.10
2018-08-04T14:45:51.881Z,30.10
2018-08-04T14:48:27.548Z,30.20
2018-08-04T14:51:02.853Z,30.20
2018-08-04T14:53:38.600Z,30.30
2018-08-04T14:56:14.146Z,30.30
2018-08-04T14:58:49.581Z,30.40
2018-08-04T15:01:25.244Z,30.00
2018-08-04T15:04:00.589Z,30.00
2018-08-04T15:06:36.061Z,29.90
2018-08-04T15:09:12.837Z,30.00
2018-08-04T15:11:48.080Z,30.00
2018-08-04T15:14:23.703Z,29.70
2018-08-04T15:16:59.405Z,29.80
2018-08-04T15:19:35.010Z,29.90
2018-08-04T15:22:10.462Z,29.70
2018-08-04T15:24:46.040Z,29.70
2018-08-04T15:27:21.520Z,29.80
2018-08-04T15:29:57.177Z,29.70
2018-08-04T15:32:32.564Z,29.60
2018-08-04T15:35:08.090Z,29.60
2018-08-04T15:37:43.272Z,29.70
2018-08-04T15:40:18.825Z,29.60
2018-08-04T15:42:54.412Z,29.60
2018-08-04T15:45:29.980Z,29.40
2018-08-04T15:48:05.552Z,29.40
2018-08-04T15:50:40.836Z,29.40
2018-08-04T15:53:16.329Z,29.40
2018-08-04T15:55:51.727Z,29.30
2018-08-04T15:58:27.188Z,29.40
2018-08-04T16:01:03.780Z,29.40
2018-08-04T16:03:39.108Z,29.50
2018-08-04T16:06:14.610Z,29.60
2018-08-04T16:08:50.000Z,29.40
2018-08-04T16:11:25.397Z,29.20
2018-08-04T16:14:00.883Z,29.10
2018-08-04T16:16:36.574Z,28.90
2018-08-04T16:19:12.116Z,28.80
2018-08-04T16:21:47.754Z,28.70
2018-08-04T16:24:23.522Z,28.80
2018-08-04T16:26:58.836Z,28.90
2018-08-04T16:29:34.392Z,28.90
2018-08-04T16:32:09.764Z,29.00
2018-08-04T16:34:45.372Z,28.90
2018-08-04T16:37:20.564Z,28.70
2018-08-04T16:39:56.157Z,28.60
2018-08-04T16:42:31.532Z,28.40
2018-08-04T16:45:07.161Z,28.20
2018-08-04T16:47:42.914Z,28.10
2018-08-04T16:52:53.647Z,27.80
2018-08-04T16:55:29.269Z,27.70
2018-08-04T16:58:04.642Z,27.60
2018-08-04T17:00:40.670Z,27.50
2018-08-04T17:03:16.047Z,27.40
2018-08-04T17:05:51.739Z,27.30
2018-08-04T17:08:27.211Z,27.20
2018-08-04T17:11:02.643Z,27.00
2018-08-04T17:13:38.048Z,27.00
2018-08-04T17:16:13.718Z,26.90
2018-08-04T17:18:48.916Z,26.80
2018-08-04T17:21:24.512Z,26.60
2018-08-04T17:24:00.140Z,26.50
2018-08-04T17:26:35.725Z,26.30
2018-08-04T17:29:11.168Z,26.30
2018-08-04T17:31:46.778Z,26.20
2018-08-04T17:34:22.049Z,26.10
2018-08-04T17:36:57.593Z,26.10
2018-08-04T17:39:32.985Z,26.10
2018-08-04T17:42:08.484Z,26.00
2018-08-04T17:44:43.637Z,25.80
2018-08-04T17:47:19.572Z,25.70
2018-08-04T17:49:54.936Z,25.70
2018-08-04T17:55:05.580Z,25.50
2018-08-04T17:57:48.021Z,25.50
2018-08-04T18:00:23.401Z,25.40
2018-08-04T18:02:58.912Z,25.40
2018-08-04T18:05:34.340Z,25.30
2018-08-04T18:08:10.000Z,25.20
2018-08-04T18:10:45.260Z,25.10
2018-08-04T18:13:20.689Z,25.00
2018-08-04T18:15:56.033Z,24.90
2018-08-04T18:18:31.472Z,24.80
2018-08-04T18:21:06.945Z,24.80
2018-08-04T18:23:42.582Z,24.70
2018-08-04T18:26:24.644Z,24.70
2018-08-04T18:29:00.240Z,24.60
2018-08-04T18:31:35.889Z,24.50
2018-08-04T18:34:11.367Z,24.50
2018-08-04T18:36:46.864Z,24.40
2018-08-04T18:39:22.431Z,24.50
2018-08-04T18:41:58.061Z,24.50
2018-08-04T18:44:33.405Z,24.40
2018-08-04T18:47:09.768Z,24.40
2018-08-04T18:49:44.948Z,24.20
2018-08-04T18:52:20.474Z,24.10
2018-08-04T18:54:55.972Z,24.10
2018-08-04T18:57:31.464Z,23.90
2018-08-04T19:00:06.961Z,23.80
2018-08-04T19:02:42.766Z,23.70
2018-08-04T19:05:17.936Z,23.80
2018-08-04T19:07:53.373Z,23.70
2018-08-04T19:10:28.542Z,23.60
2018-08-04T19:13:04.041Z,23.60
2018-08-04T19:15:39.433Z,23.50
2018-08-04T19:18:14.920Z,23.40
2018-08-04T19:20:50.120Z,23.40
2018-08-04T19:23:25.587Z,23.30
2018-08-04T19:26:00.880Z,23.30
2018-08-04T19:28:36.346Z,23.20
2018-08-04T19:31:11.608Z,23.10
2018-08-04T19:33:47.271Z,23.00
2018-08-04T19:36:22.571Z,23.00
2018-08-04T19:38:58.447Z,22.90
2018-08-04T19:41:33.796Z,22.90
2018-08-04T19:44:09.263Z,22.90
2018-08-04T19:46:45.053Z,22.90
2018-08-04T19:49:20.765Z,22.80
2018-08-04T19:51:56.196Z,22.70
2018-08-04T19:54:31.959Z,22.70
2018-08-04T19:57:07.432Z,22.60
2018-08-04T19:59:42.848Z,22.50
2018-08-04T20:02:18.416Z,22.50
2018-08-04T20:04:54.029Z,22.30
2018-08-04T20:07:29.684Z,22.30
2018-08-04T20:10:05.653Z,22.30
2018-08-04T20:12:41.314Z,22.30
2018-08-04T20:15:16.866Z,22.20
2018-08-04T20:17:52.300Z,22.10
2018-08-04T20:23:02.784Z,22.00
2018-08-04T20:25:38.281Z,21.90
2018-08-04T20:28:13.660Z,21.90
2018-08-04T20:30:48.900Z,21.80
2018-08-04T20:33:24.533Z,21.90
2018-08-04T20:36:00.009Z,21.80
2018-08-04T20:38:35.557Z,21.80
2018-08-04T20:41:10.916Z,21.80
2018-08-04T20:43:46.475Z,21.70
2018-08-04T20:46:22.216Z,21.70
2018-08-04T20:48:57.738Z,21.60
2018-08-04T20:51:32.948Z,21.60
2018-08-04T20:54:08.528Z,21.60
2018-08-04T20:56:43.891Z,21.50
2018-08-04T21:02:02.117Z,21.40
2018-08-04T21:04:37.892Z,21.30
2018-08-04T21:09:48.473Z,21.40
2018-08-04T21:12:23.932Z,21.30
2018-08-04T21:14:59.377Z,21.20
2018-08-04T21:17:34.788Z,21.30
2018-08-04T21:20:10.261Z,21.20
2018-08-04T21:22:45.713Z,21.20
2018-08-04T21:25:20.377Z,21.10
2018-08-04T21:27:55.681Z,21.00
2018-08-04T21:30:31.146Z,21.00
2018-08-04T21:38:17.033Z,21.00
2018-08-04T21:40:52.696Z,20.90
2018-08-04T21:43:28.088Z,20.80
2018-08-04T21:46:04.094Z,20.80
2018-08-04T21:48:39.712Z,20.80
2018-08-04T21:51:15.288Z,20.70
2018-08-04T21:53:50.766Z,20.60
2018-08-04T21:56:26.193Z,20.60
2018-08-04T21:59:01.736Z,20.50
2018-08-04T22:01:37.152Z,20.50
2018-08-04T22:04:12.497Z,20.50
2018-08-04T22:08:04.781Z,20.50
2018-08-04T22:10:40.446Z,20.50
2018-08-04T22:13:15.916Z,20.50
2018-08-04T22:15:51.508Z,20.40
2018-08-04T22:18:26.749Z,20.30
2018-08-04T22:21:02.809Z,20.30
2018-08-04T22:23:38.444Z,20.20
2018-08-04T22:26:14.009Z,20.20
2018-08-04T22:28:49.493Z,20.20
2018-08-04T22:31:25.098Z,20.20
2018-08-04T22:34:00.812Z,20.20
2018-08-04T22:36:36.319Z,20.20
2018-08-04T22:39:11.630Z,20.20
2018-08-04T22:41:47.109Z,20.20
2018-08-04T22:44:22.354Z,20.10
2018-08-04T22:46:58.085Z,20.10
2018-08-04T22:49:33.657Z,20.10
2018-08-04T22:52:09.320Z,20.10
2018-08-04T22:54:44.716Z,20.00
2018-08-04T22:57:20.480Z,20.00
2018-08-04T22:59:55.949Z,19.90
2018-08-04T23:02:31.575Z,19.90
2018-08-04T23:05:06.881Z,19.90
2018-08-04T23:07:42.389Z,19.90
2018-08-04T23:10:17.718Z,19.90
2018-08-04T23:12:53.240Z,19.80
2018-08-04T23:18:05.065Z,20.00
2018-08-04T23:20:40.385Z,19.90
2018-08-04T23:23:16.476Z,19.80
2018-08-04T23:25:51.804Z,19.80
2018-08-04T23:28:27.221Z,19.80
2018-08-04T23:31:02.504Z,19.70
2018-08-04T23:33:38.508Z,19.70
2018-08-04T23:36:14.041Z,19.60
2018-08-04T23:38:49.564Z,19.60
2018-08-04T23:41:25.059Z,19.60
2018-08-04T23:44:00.636Z,19.70
2018-08-04T23:49:12.556Z,19.60
2018-08-04T23:51:48.054Z,19.50
2018-08-04T23:54:23.549Z,19.50
2018-08-04T23:56:58.749Z,19.50
2018-08-04T23:59:34.232Z,19.40
